Timisoara, Romania

1:13 AM EEST on October 26, 2014 (GMT +0300)
Dumbravita | Change Station
CLOSE
Current Station
Personal Weather Station
Location: Timisoara, Timis
Elevation: 305 ft
Nearby Weather Stations

Elev 305 ft 45.80 °N, 21.24 °E | Updated 32 seconds ago

Scattered Clouds
Scattered Clouds
43.0 °F
Feels Like 41 °F
N
4.0
Wind Variable Wind from SSW
Gusts 6.0 mph

Today
High -- | Low -- °F
--% Chance of Precip.
Yesterday
High -- | Low -- °F
Precip. -- in
7:06 AM 5:31 PM
Waxing Crescent, 4% visible
Pressure 30.33 in
Visibility 6.2 miles
Clouds Scattered Clouds 700 ft
Windchill 41 °F
Dew Point 40 °F
Humidity 100%
Rainfall 0.00 in
Snow Depth Not available.
UV 0.0 out of 12
Pollen Not available.
Air Quality Not available.
Flu Activity Not available.
METAR LRTR 252200Z VRB01KT 9999 SCT007 07/06 Q1027

More Conditions Fewer Conditions

Pressure 30.33 in
Visibility 6.2 miles
Clouds Scattered Clouds 700 ft
Windchill 41 °F
Dew Point 40 °F
Humidity 100%
Rainfall 0.00 in
Snow Depth Not available.
UV 0.0 out of 12
Pollen Not available.
Air Quality Not available.
Flu Activity Not available.
METAR LRTR 252200Z VRB01KT 9999 SCT007 07/06 Q1027

More Conditions Fewer Conditions

10-Day Weather Forecast

Almanac

Astronomy

Oct. 26, 2014 Rise Set
Actual Time 7:06 AM EET 5:31 PM EET
Civil Twilight 6:35 AM EET 6:01 PM EET
Nautical Twilight 6:00 AM EET 6:36 PM EET
Astronomical Twilight 5:26 AM EET 7:10 PM EET
Moon 10:31 AM EET (10/26) 8:21 PM EET (10/26)
Length of Visible Light 11h 26m
Length of Day
10h 24m
Tomorrow will be 2m 59s shorter.
Waxing Crescent, 4% of the Moon is Illuminated
Oct 25
Waxing Crescent
Oct 30
First Quarter
Nov 6
Full
Nov 14
Last Quarter
Nov 22
New

Yesterday's Extremes

Country Highs Country Lows

Community

WunderPhotos

Upload Photos

1,765,015 photos uploaded!

Nearby

Snow Depth

Not available.

Earthquake Activity

City Distance Mag. Time & Date
No recent earthquake activity has been reported nearby.
Minimum magnitude displayed is 2.5.

Coastal Water Temperatures

Place Temperature
No Stations Reporting

Nearby Weather Stations